createdAt,value
2024-03-18T00:00:09.319Z,56.66
2024-03-18T00:01:09.306Z,56.66
2024-03-18T00:02:09.274Z,56.86
2024-03-18T00:03:09.291Z,57.46
2024-03-18T00:04:09.283Z,56.66
2024-03-18T00:05:09.304Z,56.46
2024-03-18T00:06:09.267Z,56.46
2024-03-18T00:07:09.257Z,56.66
2024-03-18T00:08:09.242Z,56.26
2024-03-18T00:09:09.207Z,56.66
2024-03-18T00:10:09.216Z,56.06
2024-03-18T00:11:09.232Z,53.08
2024-03-18T00:12:09.205Z,56.86
2024-03-18T00:13:09.194Z,56.86
2024-03-18T00:14:09.189Z,56.26
2024-03-18T00:15:09.153Z,56.86
2024-03-18T00:16:09.150Z,56.66
2024-03-18T00:17:09.170Z,55.86
2024-03-18T00:18:09.145Z,57.26
2024-03-18T00:19:09.121Z,56.86
2024-03-18T00:20:09.116Z,56.26
2024-03-18T00:21:09.084Z,56.86
2024-03-18T00:22:09.104Z,56.86
2024-03-18T00:23:09.080Z,56.86
2024-03-18T00:24:09.067Z,56.86
2024-03-18T00:25:09.072Z,57.06
2024-03-18T00:26:09.080Z,56.86
2024-03-18T00:27:09.028Z,57.26
2024-03-18T00:28:09.019Z,55.67
2024-03-18T00:29:09.001Z,57.06
2024-03-18T00:30:08.995Z,57.06
2024-03-18T00:31:08.970Z,56.26
2024-03-18T00:32:08.980Z,56.86
2024-03-18T00:33:08.973Z,56.66
2024-03-18T00:34:08.969Z,57.06
2024-03-18T00:35:08.942Z,56.66
2024-03-18T00:36:08.993Z,56.86
2024-03-18T00:37:08.943Z,56.46
2024-03-18T00:38:08.992Z,56.86
2024-03-18T00:39:08.907Z,56.26
2024-03-18T00:40:08.924Z,56.46
2024-03-18T00:41:08.890Z,56.06
2024-03-18T00:42:08.897Z,56.26
2024-03-18T00:43:08.875Z,56.46
2024-03-18T00:44:08.855Z,56.86
2024-03-18T00:45:08.856Z,56.46
2024-03-18T00:46:08.825Z,56.26
2024-03-18T00:47:08.822Z,56.26
2024-03-18T00:48:08.797Z,56.86
2024-03-18T00:49:08.804Z,57.06
2024-03-18T00:50:08.813Z,56.46
2024-03-18T00:51:08.751Z,57.06
2024-03-18T00:52:08.768Z,56.86
2024-03-18T00:53:08.744Z,56.66
2024-03-18T00:54:08.732Z,56.86
2024-03-18T00:55:08.709Z,56.26
2024-03-18T00:56:08.769Z,56.66
2024-03-18T00:57:08.688Z,56.66
2024-03-18T00:58:08.676Z,57.26
2024-03-18T00:59:08.698Z,57.06
2024-03-18T01:00:08.733Z,57.06
2024-03-18T01:01:08.659Z,57.06
2024-03-18T01:02:08.665Z,56.06
2024-03-18T01:03:08.648Z,58.45
2024-03-18T01:04:08.604Z,56.06
2024-03-18T01:05:08.600Z,56.26
2024-03-18T01:06:08.602Z,57.06
2024-03-18T01:07:08.585Z,57.06
2024-03-18T01:08:08.640Z,56.26
2024-03-18T01:09:08.587Z,56.86
2024-03-18T01:10:08.570Z,55.86
2024-03-18T01:11:08.593Z,56.66
2024-03-18T01:12:08.536Z,56.46
2024-03-18T01:13:08.530Z,56.66
2024-03-18T01:14:08.507Z,56.66
2024-03-18T01:15:08.518Z,56.06
2024-03-18T01:16:08.520Z,56.26
2024-03-18T01:17:08.465Z,56.66
2024-03-18T01:18:08.759Z,57.26
2024-03-18T01:19:08.763Z,56.86
2024-03-18T01:20:08.427Z,57.06
2024-03-18T01:21:08.414Z,56.66
2024-03-18T01:22:08.471Z,56.86
2024-03-18T01:23:08.441Z,56.46
2024-03-18T01:24:08.431Z,56.86
2024-03-18T01:25:08.411Z,57.26
2024-03-18T01:26:08.390Z,56.46
2024-03-18T01:27:08.389Z,57.26
2024-03-18T01:28:08.360Z,57.06
2024-03-18T01:29:08.472Z,57.26
2024-03-18T01:30:08.350Z,57.26
2024-03-18T01:31:08.324Z,56.66
2024-03-18T01:32:08.350Z,56.86
2024-03-18T01:33:08.304Z,55.86
2024-03-18T01:34:08.286Z,56.66
2024-03-18T01:35:08.293Z,56.46
2024-03-18T01:36:08.286Z,57.46
2024-03-18T01:37:08.259Z,56.86
2024-03-18T01:38:09.303Z,56.86
2024-03-18T01:39:08.239Z,56.46
2024-03-18T01:40:08.241Z,56.66
2024-03-18T01:41:08.252Z,57.06
2024-03-18T01:42:08.226Z,56.66
2024-03-18T01:43:08.215Z,56.46
2024-03-18T01:44:08.183Z,56.86
2024-03-18T01:45:08.229Z,56.86
2024-03-18T01:46:08.178Z,57.65
2024-03-18T01:47:08.150Z,57.46
2024-03-18T01:48:08.165Z,56.26
2024-03-18T01:49:08.128Z,55.67
2024-03-18T01:50:08.148Z,56.66
2024-03-18T01:51:08.164Z,57.26
2024-03-18T01:52:08.096Z,56.66
2024-03-18T01:53:08.068Z,56.86
2024-03-18T01:54:08.076Z,56.66
2024-03-18T01:55:08.094Z,57.26
2024-03-18T01:56:08.087Z,56.66
2024-03-18T01:57:08.030Z,56.86
2024-03-18T01:58:08.057Z,57.06
2024-03-18T01:59:08.006Z,57.26
2024-03-18T02:00:08.022Z,56.26
2024-03-18T02:01:07.996Z,57.06
2024-03-18T02:02:07.999Z,55.67
2024-03-18T02:03:08.018Z,56.46
2024-03-18T02:04:08.031Z,57.65
2024-03-18T02:05:07.972Z,57.26
2024-03-18T02:06:07.961Z,56.06
2024-03-18T02:07:07.931Z,56.86
2024-03-18T02:08:07.940Z,56.06
2024-03-18T02:09:07.907Z,57.06
2024-03-18T02:10:07.913Z,56.46
2024-03-18T02:11:07.920Z,56.86
2024-03-18T02:12:07.917Z,56.46
2024-03-18T02:13:07.875Z,56.66
2024-03-18T02:14:07.918Z,57.06
2024-03-18T02:15:07.876Z,57.46
2024-03-18T02:16:08.062Z,57.26
2024-03-18T02:17:07.893Z,57.06
2024-03-18T02:18:07.860Z,57.85
2024-03-18T02:19:07.848Z,56.66
2024-03-18T02:20:07.793Z,56.86
2024-03-18T02:21:07.789Z,57.26
2024-03-18T02:22:07.801Z,57.06
2024-03-18T02:23:07.780Z,57.26
2024-03-18T02:24:08.616Z,57.46
2024-03-18T02:25:07.735Z,56.66
2024-03-18T02:26:07.762Z,57.26
2024-03-18T02:27:07.725Z,57.06
2024-03-18T02:28:07.748Z,56.86
2024-03-18T02:29:07.715Z,56.86
2024-03-18T02:30:08.035Z,57.06
2024-03-18T02:31:07.688Z,56.26
2024-03-18T02:32:10.308Z,57.26
2024-03-18T02:33:07.648Z,57.06
2024-03-18T02:34:07.655Z,57.65
2024-03-18T02:35:07.667Z,57.26
2024-03-18T02:36:07.624Z,57.46
2024-03-18T02:37:07.656Z,56.86
2024-03-18T02:38:07.634Z,56.66
2024-03-18T02:39:07.611Z,56.66
2024-03-18T02:40:07.597Z,57.46
2024-03-18T02:41:07.607Z,57.26
2024-03-18T02:42:07.626Z,57.06
2024-03-18T02:43:07.587Z,56.26
2024-03-18T02:44:07.549Z,57.06
2024-03-18T02:45:07.549Z,56.86
2024-03-18T02:46:07.565Z,56.66
2024-03-18T02:47:07.552Z,57.06
2024-03-18T02:48:07.517Z,56.86
2024-03-18T02:49:07.491Z,57.06
2024-03-18T02:50:07.512Z,56.66
2024-03-18T02:51:07.481Z,57.26
2024-03-18T02:52:07.468Z,56.86
2024-03-18T02:53:07.472Z,56.46
2024-03-18T02:54:07.448Z,57.26
2024-03-18T02:55:07.427Z,56.26
2024-03-18T02:56:07.447Z,56.86
2024-03-18T02:57:07.396Z,56.26
2024-03-18T02:58:07.389Z,56.46
2024-03-18T02:59:07.414Z,57.26
2024-03-18T03:00:07.388Z,56.86
2024-03-18T03:01:07.368Z,57.26
2024-03-18T03:02:07.345Z,57.46
2024-03-18T03:03:07.347Z,57.26
2024-03-18T03:04:07.359Z,57.65
2024-03-18T03:05:07.360Z,58.05
2024-03-18T03:06:07.332Z,57.85
2024-03-18T03:07:07.318Z,57.26
2024-03-18T03:08:07.265Z,56.66
2024-03-18T03:09:07.285Z,56.66
2024-03-18T03:10:07.295Z,55.86
2024-03-18T03:11:07.273Z,58.25
2024-03-18T03:12:07.209Z,57.06
2024-03-18T03:13:07.250Z,57.65
2024-03-18T03:14:07.232Z,57.46
2024-03-18T03:15:07.233Z,56.86
2024-03-18T03:16:07.214Z,57.26
2024-03-18T03:17:07.186Z,58.85
2024-03-18T03:18:07.190Z,59.05
2024-03-18T03:19:07.160Z,57.85
2024-03-18T03:20:07.137Z,58.25
2024-03-18T03:21:07.167Z,58.25
2024-03-18T03:22:07.106Z,58.25
2024-03-18T03:23:07.111Z,57.85
2024-03-18T03:24:07.155Z,58.45
2024-03-18T03:25:07.119Z,58.25
2024-03-18T03:26:07.089Z,58.25
2024-03-18T03:27:07.104Z,58.45
2024-03-18T03:28:07.066Z,58.05
2024-03-18T03:29:07.094Z,58.85
2024-03-18T03:30:07.029Z,58.05
2024-03-18T03:31:07.015Z,58.05
2024-03-18T03:32:07.028Z,58.65
2024-03-18T03:33:07.034Z,58.25
2024-03-18T03:34:06.994Z,58.45
2024-03-18T03:35:07.043Z,58.65
2024-03-18T03:36:06.982Z,58.45
2024-03-18T03:37:06.950Z,58.45
2024-03-18T03:38:06.959Z,60.44
2024-03-18T03:39:06.969Z,58.25
2024-03-18T03:40:06.930Z,58.05
2024-03-18T03:41:06.910Z,58.65
2024-03-18T03:42:06.922Z,57.26
2024-03-18T03:43:06.920Z,57.46
2024-03-18T03:44:06.897Z,58.45
2024-03-18T03:45:06.880Z,58.65
2024-03-18T03:46:06.863Z,58.25
2024-03-18T03:47:10.091Z,57.85
2024-03-18T03:48:07.376Z,57.65
2024-03-18T03:49:06.848Z,58.05
2024-03-18T03:50:06.806Z,59.24
2024-03-18T03:51:06.795Z,54.67
2024-03-18T03:52:06.855Z,57.85
2024-03-18T03:53:06.785Z,58.45
2024-03-18T03:54:06.764Z,58.25
2024-03-18T03:55:06.797Z,58.85
2024-03-18T03:56:06.784Z,58.25
2024-03-18T03:57:06.754Z,58.45
2024-03-18T03:58:06.869Z,59.05
2024-03-18T03:59:06.724Z,58.65
2024-03-18T04:00:06.723Z,58.05
2024-03-18T04:01:06.701Z,57.85
2024-03-18T04:02:06.687Z,59.05
2024-03-18T04:03:06.677Z,58.65
2024-03-18T04:04:06.694Z,58.25
2024-03-18T04:05:06.642Z,58.65
2024-03-18T04:06:06.648Z,57.85
2024-03-18T04:07:06.665Z,58.05
2024-03-18T04:08:06.633Z,58.85
2024-03-18T04:09:06.623Z,59.24
2024-03-18T04:10:06.613Z,58.65
2024-03-18T04:11:06.648Z,59.05
2024-03-18T04:12:06.571Z,59.05
2024-03-18T04:13:06.570Z,58.85
2024-03-18T04:14:06.590Z,58.85
2024-03-18T04:15:06.552Z,58.65
2024-03-18T04:16:06.543Z,59.24
2024-03-18T04:17:06.533Z,58.65
2024-03-18T04:18:06.518Z,59.44
2024-03-18T04:19:06.492Z,58.85
2024-03-18T04:20:06.509Z,58.85
2024-03-18T04:21:06.495Z,58.85
2024-03-18T04:22:06.476Z,58.05
2024-03-18T04:23:06.499Z,59.24
2024-03-18T04:24:06.502Z,58.65
2024-03-18T04:25:06.487Z,58.85
2024-03-18T04:26:06.456Z,57.85
2024-03-18T04:27:06.461Z,58.85
2024-03-18T04:28:06.415Z,58.45
2024-03-18T04:29:06.425Z,59.24
2024-03-18T04:30:06.444Z,59.24
2024-03-18T04:31:06.406Z,59.24
2024-03-18T04:32:06.388Z,60.24
2024-03-18T04:33:06.371Z,59.24
2024-03-18T04:34:06.391Z,58.85
2024-03-18T04:35:06.397Z,58.85
2024-03-18T04:36:06.335Z,59.05
2024-03-18T04:37:06.367Z,59.05
2024-03-18T04:38:06.317Z,59.44
2024-03-18T04:39:06.317Z,58.65
2024-03-18T04:40:06.319Z,59.05
2024-03-18T04:41:06.279Z,58.85
2024-03-18T04:42:06.278Z,58.85
2024-03-18T04:43:06.263Z,59.05
2024-03-18T04:44:06.253Z,59.05
2024-03-18T04:45:06.254Z,58.05
2024-03-18T04:46:06.233Z,59.44
2024-03-18T04:47:06.250Z,59.64
2024-03-18T04:48:06.214Z,59.44
2024-03-18T04:49:06.193Z,58.65
2024-03-18T04:50:06.154Z,59.64
2024-03-18T04:51:06.202Z,60.04
2024-03-18T04:52:06.164Z,59.05
2024-03-18T04:53:06.158Z,59.64
2024-03-18T04:54:06.150Z,58.25
2024-03-18T04:55:06.125Z,59.05
2024-03-18T04:56:06.105Z,59.44
2024-03-18T04:57:06.127Z,59.84
2024-03-18T04:58:06.124Z,60.04
2024-03-18T04:59:06.114Z,59.24
2024-03-18T05:00:06.080Z,58.45
2024-03-18T05:01:06.068Z,60.04
2024-03-18T05:02:06.036Z,59.05
2024-03-18T05:03:06.047Z,60.64
2024-03-18T05:04:06.045Z,59.44
2024-03-18T05:05:06.023Z,59.24
2024-03-18T05:06:06.037Z,59.64
2024-03-18T05:07:06.014Z,59.05
2024-03-18T05:08:05.996Z,58.85
2024-03-18T05:09:05.961Z,59.44
2024-03-18T05:10:05.986Z,59.24
2024-03-18T05:11:05.982Z,59.84
2024-03-18T05:12:05.959Z,59.24
2024-03-18T05:13:05.906Z,58.45
2024-03-18T05:14:05.917Z,59.44
2024-03-18T05:15:05.903Z,59.44
2024-03-18T05:16:05.902Z,59.64
2024-03-18T05:17:05.906Z,59.64
2024-03-18T05:18:05.923Z,59.24
2024-03-18T05:19:05.862Z,59.44
2024-03-18T05:20:05.874Z,59.64
2024-03-18T05:21:05.859Z,58.85
2024-03-18T05:22:05.830Z,59.05
2024-03-18T05:23:05.864Z,60.04
2024-03-18T05:24:05.790Z,58.45
2024-03-18T05:25:05.800Z,59.24
2024-03-18T05:26:05.789Z,54.87
2024-03-18T05:27:05.810Z,59.44
2024-03-18T05:28:05.801Z,59.24
2024-03-18T05:29:05.750Z,59.84
2024-03-18T05:30:05.734Z,59.44
2024-03-18T05:31:05.731Z,59.05
2024-03-18T05:32:05.708Z,58.85
2024-03-18T05:33:05.718Z,59.44
2024-03-18T05:34:05.705Z,59.24
2024-03-18T05:35:05.845Z,59.44
2024-03-18T05:36:05.676Z,59.64
2024-03-18T05:37:05.678Z,60.24
2024-03-18T05:38:05.650Z,59.24
2024-03-18T05:39:05.642Z,60.44
2024-03-18T05:40:05.776Z,58.65
2024-03-18T05:41:05.629Z,60.24
2024-03-18T05:42:05.617Z,59.64
2024-03-18T05:43:05.604Z,59.84
2024-03-18T05:44:05.590Z,58.65
2024-03-18T05:45:05.619Z,59.84
2024-03-18T05:46:05.561Z,59.05
2024-03-18T05:47:05.561Z,59.64
2024-03-18T05:48:08.207Z,59.24
2024-03-18T05:49:05.538Z,59.64
2024-03-18T05:50:05.551Z,59.84
2024-03-18T05:51:05.510Z,59.24
2024-03-18T05:52:05.488Z,59.64
2024-03-18T05:53:05.498Z,59.44
2024-03-18T05:54:05.523Z,60.04
2024-03-18T05:55:05.487Z,59.64
2024-03-18T05:56:05.460Z,59.64
2024-03-18T05:57:05.459Z,60.24
2024-03-18T05:58:05.420Z,59.24
2024-03-18T05:59:05.425Z,59.84
2024-03-18T06:00:05.421Z,59.64
2024-03-18T06:01:05.405Z,60.24
2024-03-18T06:02:05.392Z,59.24
2024-03-18T06:03:05.410Z,59.44
2024-03-18T06:04:05.384Z,60.04
2024-03-18T06:05:05.366Z,60.04
2024-03-18T06:06:05.340Z,59.44
2024-03-18T06:07:05.365Z,58.85
2024-03-18T06:08:05.360Z,59.05
2024-03-18T06:09:05.315Z,59.64
2024-03-18T06:10:05.313Z,58.65
2024-03-18T06:11:05.309Z,59.24
2024-03-18T06:12:05.277Z,58.65
2024-03-18T06:13:05.337Z,59.84
2024-03-18T06:14:05.249Z,59.44
2024-03-18T06:15:05.274Z,60.04
2024-03-18T06:16:05.260Z,59.84
2024-03-18T06:17:05.276Z,59.64
2024-03-18T06:18:05.210Z,59.44
2024-03-18T06:19:05.217Z,59.84
2024-03-18T06:20:05.182Z,60.24
2024-03-18T06:21:05.199Z,59.24
2024-03-18T06:22:05.191Z,59.24
2024-03-18T06:23:05.197Z,59.24
2024-03-18T06:24:05.130Z,58.65
2024-03-18T06:25:05.141Z,58.65
2024-03-18T06:26:05.133Z,58.85
2024-03-18T06:27:05.129Z,58.85
2024-03-18T06:28:05.269Z,59.44
2024-03-18T06:29:06.077Z,59.24
2024-03-18T06:30:05.069Z,59.64
2024-03-18T06:31:05.167Z,59.24
2024-03-18T06:32:05.480Z,59.84
2024-03-18T06:33:05.041Z,59.44
2024-03-18T06:34:05.060Z,59.24
2024-03-18T06:35:05.042Z,59.44
2024-03-18T06:36:05.026Z,60.24
2024-03-18T06:37:05.003Z,59.05
2024-03-18T06:38:05.058Z,58.65
2024-03-18T06:39:05.012Z,59.64
2024-03-18T06:40:05.024Z,60.04
2024-03-18T06:41:04.993Z,58.05
2024-03-18T06:42:05.008Z,59.44
2024-03-18T06:43:04.935Z,59.84
2024-03-18T06:44:04.908Z,59.24
2024-03-18T06:45:04.920Z,58.85
2024-03-18T06:46:04.934Z,58.25
2024-03-18T06:47:04.889Z,60.04
2024-03-18T06:48:04.982Z,59.64
2024-03-18T06:49:04.860Z,59.84
2024-03-18T06:50:04.896Z,59.05
2024-03-18T06:51:04.938Z,59.44
2024-03-18T06:52:04.841Z,59.84
2024-03-18T06:53:04.825Z,58.85
2024-03-18T06:54:04.833Z,59.05
2024-03-18T06:55:04.819Z,59.84
2024-03-18T06:56:04.807Z,59.24
2024-03-18T06:57:04.784Z,61.03
2024-03-18T06:58:04.841Z,60.04
2024-03-18T06:59:04.783Z,59.64
2024-03-18T07:00:04.788Z,58.85
2024-03-18T07:01:04.749Z,59.84
2024-03-18T07:02:04.742Z,59.24
2024-03-18T07:03:04.731Z,58.45
2024-03-18T07:04:04.733Z,58.65
2024-03-18T07:05:04.705Z,58.45
2024-03-18T07:06:04.697Z,58.85
2024-03-18T07:07:04.675Z,60.44
2024-03-18T07:08:04.680Z,60.24
2024-03-18T07:09:04.669Z,60.64
2024-03-18T07:10:04.653Z,59.84
2024-03-18T07:11:04.772Z,58.85
2024-03-18T07:12:04.619Z,59.44
2024-03-18T07:13:04.612Z,59.44
2024-03-18T07:14:04.634Z,60.04
2024-03-18T07:15:04.588Z,59.05
2024-03-18T07:16:04.565Z,59.44
2024-03-18T07:17:04.595Z,59.05
2024-03-18T07:18:04.581Z,59.24
2024-03-18T07:19:04.588Z,60.64
2024-03-18T07:20:14.744Z,59.05
2024-03-18T07:21:05.494Z,59.84
2024-03-18T07:22:04.506Z,59.84
2024-03-18T07:23:04.544Z,58.85
2024-03-18T07:24:04.487Z,59.24
2024-03-18T07:25:04.459Z,59.44
2024-03-18T07:26:04.530Z,59.44
2024-03-18T07:27:04.429Z,58.85
2024-03-18T07:28:04.482Z,59.44
2024-03-18T07:29:04.550Z,59.24
2024-03-18T07:30:04.460Z,59.44
2024-03-18T07:31:04.424Z,59.44
2024-03-18T07:32:04.408Z,59.05
2024-03-18T07:33:04.379Z,59.05
2024-03-18T07:34:04.377Z,59.44
2024-03-18T07:35:11.390Z,59.24
2024-03-18T07:36:05.404Z,58.25
2024-03-18T07:37:04.335Z,59.05
2024-03-18T07:38:11.953Z,59.24
2024-03-18T07:39:05.271Z,59.84
2024-03-18T07:40:04.275Z,59.05
2024-03-18T07:41:04.448Z,59.24
2024-03-18T07:42:04.295Z,59.24
2024-03-18T07:43:04.328Z,59.44
2024-03-18T07:44:04.263Z,59.44
2024-03-18T07:45:04.284Z,61.23
2024-03-18T07:46:04.214Z,58.25
2024-03-18T07:47:04.247Z,59.44
2024-03-18T07:48:04.209Z,59.64
2024-03-18T07:49:04.238Z,59.64
2024-03-18T07:50:04.727Z,60.24
2024-03-18T07:51:04.177Z,58.85
2024-03-18T07:52:04.182Z,58.85
2024-03-18T07:53:04.207Z,59.24
2024-03-18T07:54:04.166Z,59.24
2024-03-18T07:55:04.146Z,59.84
2024-03-18T07:56:04.136Z,59.24
2024-03-18T07:57:04.091Z,58.85
2024-03-18T07:58:04.130Z,58.65
2024-03-18T07:59:04.071Z,59.64
2024-03-18T08:00:04.889Z,59.05
2024-03-18T08:01:04.075Z,60.24
2024-03-18T08:02:04.111Z,58.25
2024-03-18T08:03:04.046Z,58.65
2024-03-18T08:04:04.019Z,59.84
2024-03-18T08:05:04.060Z,59.05
2024-03-18T08:06:04.144Z,59.64
2024-03-18T08:07:03.992Z,58.45
2024-03-18T08:08:03.996Z,59.44
2024-03-18T08:09:04.025Z,59.24
2024-03-18T08:10:04.012Z,58.05
2024-03-18T08:11:03.962Z,59.24
2024-03-18T08:12:03.929Z,59.24
2024-03-18T08:13:03.945Z,59.05
2024-03-18T08:14:04.046Z,59.05
2024-03-18T08:15:03.911Z,58.45
2024-03-18T08:16:03.866Z,59.44
2024-03-18T08:17:03.964Z,59.05
2024-03-18T08:18:03.873Z,59.24
2024-03-18T08:19:03.910Z,58.65
2024-03-18T08:20:03.909Z,60.04
2024-03-18T08:21:03.887Z,59.05
2024-03-18T08:22:13.835Z,58.85
2024-03-18T08:23:04.841Z,59.05
2024-03-18T08:24:03.834Z,59.44
2024-03-18T08:25:04.262Z,59.05
2024-03-18T08:26:03.830Z,59.64
2024-03-18T08:27:03.827Z,59.05
2024-03-18T08:28:03.871Z,58.65
2024-03-18T08:29:03.861Z,59.64
2024-03-18T08:30:03.763Z,59.64
2024-03-18T08:31:04.264Z,59.84
2024-03-18T08:32:03.844Z,59.44
2024-03-18T08:33:14.127Z,59.44
2024-03-18T08:34:05.854Z,59.44
2024-03-18T08:35:03.703Z,59.64
2024-03-18T08:36:03.709Z,59.05
2024-03-18T08:37:03.631Z,59.24
2024-03-18T08:38:03.672Z,59.24
2024-03-18T08:39:03.610Z,58.65
2024-03-18T08:40:03.652Z,59.05
2024-03-18T08:41:03.722Z,58.45
2024-03-18T08:42:03.666Z,59.05
2024-03-18T08:43:03.589Z,59.44
2024-03-18T08:44:03.996Z,59.24
2024-03-18T08:45:03.564Z,59.24
2024-03-18T08:46:03.563Z,59.24
2024-03-18T08:47:03.589Z,57.65
2024-03-18T08:48:03.529Z,58.05
2024-03-18T08:49:03.523Z,59.44
2024-03-18T08:50:03.560Z,59.44
2024-03-18T08:51:03.503Z,58.25
2024-03-18T08:52:03.559Z,59.24
2024-03-18T08:53:03.468Z,59.64
2024-03-18T08:54:03.627Z,59.64
2024-03-18T08:55:03.444Z,58.45
2024-03-18T08:56:03.436Z,59.24
2024-03-18T08:57:03.494Z,60.24
2024-03-18T08:58:03.400Z,60.44
2024-03-18T08:59:03.446Z,59.05
2024-03-18T09:00:03.403Z,59.44
2024-03-18T09:01:03.370Z,59.44
2024-03-18T09:02:03.370Z,58.85
2024-03-18T09:03:03.351Z,58.25
2024-03-18T09:04:03.342Z,59.05
2024-03-18T09:05:03.408Z,58.65
2024-03-18T09:06:03.351Z,59.44
2024-03-18T09:07:03.681Z,58.85
2024-03-18T09:08:03.321Z,58.25
2024-03-18T09:09:03.278Z,59.05
2024-03-18T09:10:03.307Z,59.05
2024-03-18T09:11:03.292Z,58.85
2024-03-18T09:12:03.272Z,59.05
2024-03-18T09:13:03.227Z,58.45
2024-03-18T09:14:03.358Z,58.65
2024-03-18T09:15:03.233Z,60.24
2024-03-18T09:16:03.232Z,59.05
2024-03-18T09:17:03.441Z,58.85
2024-03-18T09:18:03.192Z,58.85
2024-03-18T09:19:03.205Z,59.44
2024-03-18T09:20:03.212Z,59.05
2024-03-18T09:21:03.160Z,58.85
2024-03-18T09:22:03.197Z,58.85
2024-03-18T09:23:03.127Z,58.45
2024-03-18T09:24:03.209Z,59.05
2024-03-18T09:25:03.189Z,58.65
2024-03-18T09:26:03.136Z,58.85
2024-03-18T09:27:03.108Z,59.24
2024-03-18T09:28:03.112Z,58.45
2024-03-18T09:29:03.263Z,59.24
2024-03-18T09:30:03.253Z,59.64
2024-03-18T09:31:03.320Z,59.24
2024-03-18T09:32:03.078Z,58.25
2024-03-18T09:33:03.151Z,59.64
2024-03-18T09:34:03.059Z,59.24
2024-03-18T09:35:03.100Z,59.64
2024-03-18T09:36:03.119Z,59.64
2024-03-18T09:37:03.068Z,58.65
2024-03-18T09:38:03.171Z,58.45
2024-03-18T09:39:03.049Z,59.05
2024-03-18T09:40:03.083Z,59.44
2024-03-18T09:41:02.984Z,59.24
2024-03-18T09:42:02.938Z,61.23
2024-03-18T09:43:03.011Z,60.04
2024-03-18T09:44:03.087Z,59.05
2024-03-18T09:45:03.064Z,57.85
2024-03-18T09:46:02.938Z,58.85
2024-03-18T09:47:03.153Z,59.05
2024-03-18T09:48:02.984Z,58.85
2024-03-18T09:49:02.882Z,58.45
2024-03-18T09:50:02.989Z,59.84
2024-03-18T09:51:02.888Z,58.65
2024-03-18T09:52:02.882Z,58.45
2024-03-18T09:53:02.902Z,58.65
2024-03-18T09:54:02.815Z,59.24
2024-03-18T09:55:02.794Z,59.24
2024-03-18T09:56:02.793Z,58.85
2024-03-18T09:57:02.752Z,58.45
2024-03-18T09:58:02.808Z,58.05
2024-03-18T09:59:03.250Z,59.24
2024-03-18T10:00:02.750Z,58.45
2024-03-18T10:01:02.797Z,59.44
2024-03-18T10:02:03.353Z,59.24
2024-03-18T10:03:02.725Z,60.64
2024-03-18T10:04:02.777Z,58.65
2024-03-18T10:05:02.723Z,59.24
2024-03-18T10:06:02.712Z,59.44
2024-03-18T10:07:02.717Z,59.24
2024-03-18T10:08:02.655Z,59.24
2024-03-18T10:09:02.700Z,59.44
2024-03-18T10:10:02.658Z,57.46
2024-03-18T10:11:02.653Z,59.05
2024-03-18T10:12:02.626Z,59.64
2024-03-18T10:13:02.591Z,59.44
2024-03-18T10:14:02.556Z,59.05
2024-03-18T10:15:02.570Z,58.45
2024-03-18T10:16:02.572Z,59.05
2024-03-18T10:17:02.586Z,59.44
2024-03-18T10:18:02.546Z,59.24
2024-03-18T10:19:02.585Z,58.25
2024-03-18T10:20:02.508Z,58.05
2024-03-18T10:21:02.481Z,58.65
2024-03-18T10:22:02.575Z,58.65
2024-03-18T10:23:02.475Z,59.44
2024-03-18T10:24:02.478Z,58.85
2024-03-18T10:25:02.459Z,60.64
2024-03-18T10:26:02.532Z,58.05
2024-03-18T10:27:02.502Z,59.24
2024-03-18T10:28:02.464Z,59.05
2024-03-18T10:29:02.447Z,59.44
2024-03-18T10:30:02.476Z,59.24
2024-03-18T10:31:02.406Z,59.24
2024-03-18T10:32:02.392Z,60.04
2024-03-18T10:33:02.336Z,59.05
2024-03-18T10:34:02.378Z,59.05
2024-03-18T10:35:02.421Z,59.44
2024-03-18T10:36:02.331Z,59.44
2024-03-18T10:37:02.305Z,58.85
2024-03-18T10:38:02.319Z,59.44
2024-03-18T10:39:02.279Z,58.85
2024-03-18T10:40:02.286Z,59.64
2024-03-18T10:41:02.338Z,59.05
2024-03-18T10:42:02.245Z,58.65
2024-03-18T10:43:02.273Z,58.85
2024-03-18T10:44:02.233Z,59.24
2024-03-18T10:45:02.271Z,58.45
2024-03-18T10:46:02.222Z,58.85
2024-03-18T10:47:02.280Z,58.25
2024-03-18T10:48:02.200Z,58.45
2024-03-18T10:49:02.165Z,58.85
2024-03-18T10:50:02.194Z,59.05
2024-03-18T10:51:02.156Z,57.85
2024-03-18T10:52:02.142Z,59.44
2024-03-18T10:53:02.126Z,58.25
2024-03-18T10:54:02.125Z,59.05
2024-03-18T10:55:02.283Z,58.85
2024-03-18T10:56:02.123Z,58.65
2024-03-18T10:57:02.081Z,59.24
2024-03-18T10:58:02.062Z,59.05
2024-03-18T10:59:02.112Z,59.24
2024-03-18T11:00:02.056Z,59.05
2024-03-18T11:01:02.045Z,59.44
2024-03-18T11:02:02.042Z,59.24
2024-03-18T11:03:02.062Z,60.04
2024-03-18T11:04:02.031Z,58.45
2024-03-18T11:05:02.068Z,59.05
2024-03-18T11:06:02.018Z,60.24
2024-03-18T11:07:02.050Z,59.44
2024-03-18T11:08:02.067Z,59.24
2024-03-18T11:09:02.003Z,58.45
2024-03-18T11:10:02.038Z,59.05
2024-03-18T11:11:01.947Z,60.64
2024-03-18T11:12:01.949Z,59.05
2024-03-18T11:13:01.950Z,58.85
2024-03-18T11:14:01.964Z,59.64
2024-03-18T11:15:01.901Z,58.45
2024-03-18T11:16:01.921Z,59.05
2024-03-18T11:17:03.395Z,58.85
2024-03-18T11:18:01.861Z,59.64
2024-03-18T11:19:01.852Z,58.65
2024-03-18T11:20:01.855Z,59.64
2024-03-18T11:21:01.836Z,59.24
2024-03-18T11:22:01.853Z,59.24
2024-03-18T11:23:01.826Z,59.05
2024-03-18T11:24:01.835Z,59.05
2024-03-18T11:25:02.280Z,58.45
2024-03-18T11:26:01.815Z,57.65
2024-03-18T11:27:02.006Z,59.05
2024-03-18T11:28:01.747Z,57.65
2024-03-18T11:29:01.849Z,58.85
2024-03-18T11:30:01.813Z,58.65
2024-03-18T11:31:01.735Z,59.05
2024-03-18T11:32:01.721Z,59.05
2024-03-18T11:33:01.679Z,58.25
2024-03-18T11:34:01.702Z,58.85
2024-03-18T11:35:01.693Z,59.84
2024-03-18T11:36:01.690Z,59.24
2024-03-18T11:37:01.712Z,60.24
2024-03-18T11:38:01.683Z,59.24
2024-03-18T11:39:04.557Z,58.65
2024-03-18T11:40:01.623Z,59.44
2024-03-18T11:41:01.732Z,59.44
2024-03-18T11:42:01.740Z,58.85
2024-03-18T11:43:01.586Z,58.45
2024-03-18T11:44:01.557Z,58.25
2024-03-18T11:45:01.560Z,59.44
2024-03-18T11:46:01.615Z,59.05
2024-03-18T11:47:01.521Z,58.85
2024-03-18T11:48:01.547Z,58.65
2024-03-18T11:49:01.511Z,58.05
2024-03-18T11:50:01.588Z,58.85
2024-03-18T11:51:02.559Z,58.45
2024-03-18T11:52:01.484Z,58.85
2024-03-18T11:53:01.502Z,58.65
2024-03-18T11:54:01.502Z,58.85
2024-03-18T11:55:01.469Z,58.85
2024-03-18T11:56:01.480Z,58.85
2024-03-18T11:57:01.449Z,59.24
2024-03-18T11:58:01.440Z,59.44
2024-03-18T11:59:01.410Z,59.24
2024-03-18T12:00:01.379Z,59.24
2024-03-18T12:01:02.638Z,61.03
2024-03-18T12:02:01.387Z,59.44
2024-03-18T12:03:01.369Z,59.05
2024-03-18T12:04:01.450Z,59.24
2024-03-18T12:05:01.332Z,59.44
2024-03-18T12:06:01.359Z,59.05
2024-03-18T12:07:01.395Z,58.45
2024-03-18T12:08:01.397Z,58.85
2024-03-18T12:09:01.318Z,59.64
2024-03-18T12:10:01.336Z,59.24
2024-03-18T12:11:01.292Z,59.44
2024-03-18T12:12:01.260Z,58.65
2024-03-18T12:13:03.610Z,58.25
2024-03-18T12:14:01.264Z,58.85
2024-03-18T12:15:01.251Z,59.05
2024-03-18T12:16:01.265Z,59.05
2024-03-18T12:17:08.019Z,59.24
2024-03-18T12:18:02.198Z,58.85
2024-03-18T12:19:01.238Z,57.46
2024-03-18T12:20:01.158Z,56.26
2024-03-18T12:21:01.155Z,59.44
2024-03-18T12:22:01.162Z,59.05
2024-03-18T12:23:01.130Z,58.45
2024-03-18T12:24:01.124Z,58.85
2024-03-18T12:25:01.135Z,59.05
2024-03-18T12:26:01.110Z,59.05
2024-03-18T12:27:01.137Z,59.05
2024-03-18T12:28:01.112Z,58.05
2024-03-18T12:29:01.072Z,59.24
2024-03-18T12:30:01.096Z,59.24
2024-03-18T12:31:01.129Z,58.45
2024-03-18T12:32:01.056Z,58.65
2024-03-18T12:33:01.072Z,58.05
2024-03-18T12:34:01.040Z,58.65
2024-03-18T12:35:00.993Z,59.05
2024-03-18T12:36:01.003Z,59.84
2024-03-18T12:37:01.044Z,58.65
2024-03-18T12:38:01.014Z,59.05
2024-03-18T12:39:01.003Z,58.45
2024-03-18T12:40:00.973Z,59.05
2024-03-18T12:41:00.976Z,59.44
2024-03-18T12:42:01.271Z,58.85
2024-03-18T12:43:00.942Z,60.04
2024-03-18T12:44:00.906Z,59.24
2024-03-18T12:45:00.924Z,59.05
2024-03-18T12:46:05.202Z,59.05
2024-03-18T12:47:01.905Z,59.84
2024-03-18T12:48:03.312Z,59.05
2024-03-18T12:49:00.847Z,59.05
2024-03-18T12:50:00.844Z,59.24
2024-03-18T12:51:00.847Z,58.65
2024-03-18T12:52:00.827Z,58.65